createdAt,value
2022-10-19T00:00:03.176Z,99.01
2022-10-19T00:01:03.274Z,99.11
2022-10-19T00:02:02.946Z,98.70
2022-10-19T00:03:02.446Z,98.50
2022-10-19T00:04:04.869Z,98.70
2022-10-19T00:05:02.724Z,98.50
2022-10-19T00:06:02.581Z,98.39
2022-10-19T00:07:02.496Z,98.50
2022-10-19T00:08:03.104Z,98.50
2022-10-19T00:09:02.759Z,98.50
2022-10-19T00:10:02.644Z,98.70
2022-10-19T00:11:02.536Z,98.39
2022-10-19T00:12:02.093Z,97.89
2022-10-19T00:13:02.682Z,98.24
2022-10-19T00:14:02.192Z,98.65
2022-10-19T00:15:02.670Z,99.16
2022-10-19T00:16:02.230Z,98.75
2022-10-19T00:17:02.715Z,98.75
2022-10-19T00:18:03.364Z,99.16
2022-10-19T00:19:03.186Z,99.16
2022-10-19T00:20:03.015Z,98.75
2022-10-19T00:21:02.925Z,98.85
2022-10-19T00:22:02.833Z,98.34
2022-10-19T00:23:03.306Z,98.34
2022-10-19T00:24:03.149Z,99.05
2022-10-19T00:25:02.852Z,98.75
2022-10-19T00:26:03.512Z,98.65
2022-10-19T00:27:02.234Z,99.10
2022-10-19T00:28:02.088Z,98.90
2022-10-19T00:29:02.719Z,98.79
2022-10-19T00:30:02.378Z,99.10
2022-10-19T00:31:02.188Z,99.00
2022-10-19T00:32:02.772Z,99.30
2022-10-19T00:33:03.051Z,99.00
2022-10-19T00:34:02.859Z,99.41
2022-10-19T00:35:03.048Z,99.10
2022-10-19T00:36:02.931Z,99.04
2022-10-19T00:37:02.664Z,99.25
2022-10-19T00:38:02.888Z,99.35
2022-10-19T00:39:02.697Z,99.76
2022-10-19T00:40:03.235Z,99.55
2022-10-19T00:41:03.191Z,99.66
2022-10-19T00:42:03.035Z,99.99
2022-10-19T00:43:03.566Z,99.99
2022-10-19T00:44:03.541Z,99.99
2022-10-19T00:45:03.148Z,99.41
2022-10-19T00:46:02.989Z,99.00
2022-10-19T00:47:02.565Z,98.69
2022-10-19T00:48:03.048Z,98.90
2022-10-19T00:49:04.002Z,98.90
2022-10-19T00:50:02.520Z,98.79
2022-10-19T00:51:03.034Z,99.25
2022-10-19T00:52:02.699Z,99.96
2022-10-19T00:53:02.795Z,99.99
2022-10-19T00:54:02.997Z,99.99
2022-10-19T00:55:02.864Z,99.99
2022-10-19T00:56:02.791Z,99.45
2022-10-19T00:57:02.464Z,99.71
2022-10-19T00:58:02.867Z,99.41
2022-10-19T00:59:02.520Z,99.30
2022-10-19T01:00:02.428Z,99.10
2022-10-19T01:01:02.455Z,98.75
2022-10-19T01:02:03.104Z,98.24
2022-10-19T01:03:02.966Z,97.73
2022-10-19T01:04:02.927Z,97.42
2022-10-19T01:05:03.473Z,97.42
2022-10-19T01:06:03.081Z,97.63
2022-10-19T01:07:02.445Z,97.22
2022-10-19T01:08:02.951Z,97.02
2022-10-19T01:09:02.528Z,97.73
2022-10-19T01:10:03.066Z,97.93
2022-10-19T01:11:02.629Z,98.14
2022-10-19T01:12:03.123Z,98.03
2022-10-19T01:13:03.044Z,97.83
2022-10-19T01:14:02.905Z,97.53
2022-10-19T01:15:03.522Z,97.22
2022-10-19T01:16:03.132Z,97.02
2022-10-19T01:17:03.001Z,96.56
2022-10-19T01:18:02.561Z,96.36
2022-10-19T01:19:02.361Z,96.06
2022-10-19T01:20:02.851Z,96.10
2022-10-19T01:21:02.868Z,97.02
2022-10-19T01:22:02.505Z,96.92
2022-10-19T01:23:02.446Z,97.02
2022-10-19T01:24:02.396Z,97.02
2022-10-19T01:25:02.741Z,97.02
2022-10-19T01:26:02.491Z,96.81
2022-10-19T01:27:02.935Z,96.71
2022-10-19T01:28:02.884Z,96.71
2022-10-19T01:29:02.772Z,96.10
2022-10-19T01:30:03.492Z,96.10
2022-10-19T01:31:03.068Z,96.10
2022-10-19T01:32:02.702Z,96.00
2022-10-19T01:33:02.445Z,96.00
2022-10-19T01:34:02.907Z,96.10
2022-10-19T01:35:02.427Z,96.61
2022-10-19T01:36:02.867Z,96.61
2022-10-19T01:37:02.533Z,96.61
2022-10-19T01:38:02.306Z,96.92
2022-10-19T01:39:02.721Z,96.81
2022-10-19T01:40:02.452Z,96.51
2022-10-19T01:41:02.769Z,96.51
2022-10-19T01:42:03.517Z,96.41
2022-10-19T01:43:03.031Z,96.00
2022-10-19T01:44:03.545Z,95.79
2022-10-19T01:45:03.508Z,95.69
2022-10-19T01:46:03.538Z,95.69
2022-10-19T01:47:02.497Z,95.59
2022-10-19T01:48:02.542Z,95.79
2022-10-19T01:49:02.971Z,96.10
2022-10-19T01:50:02.815Z,96.00
2022-10-19T01:51:02.693Z,96.71
2022-10-19T01:52:03.192Z,96.92
2022-10-19T01:53:03.157Z,96.92
2022-10-19T01:54:03.125Z,96.41
2022-10-19T01:55:02.924Z,96.51
2022-10-19T01:56:03.028Z,96.81
2022-10-19T01:57:03.564Z,96.71
2022-10-19T01:58:06.241Z,96.92
2022-10-19T01:59:03.486Z,96.71
2022-10-19T02:00:03.349Z,96.71
2022-10-19T02:01:03.565Z,96.41
2022-10-19T02:02:02.921Z,96.76
2022-10-19T02:03:03.068Z,96.96
2022-10-19T02:04:02.904Z,97.47
2022-10-19T02:05:02.814Z,97.16
2022-10-19T02:06:02.637Z,97.67
2022-10-19T02:07:03.526Z,97.47
2022-10-19T02:08:02.935Z,97.06
2022-10-19T02:09:02.857Z,97.06
2022-10-19T02:10:02.884Z,97.11
2022-10-19T02:11:03.375Z,97.21
2022-10-19T02:12:02.629Z,97.82
2022-10-19T02:13:02.525Z,97.82
2022-10-19T02:14:02.524Z,97.72
2022-10-19T02:15:02.450Z,97.72
2022-10-19T02:16:02.367Z,97.92
2022-10-19T02:17:02.798Z,97.72
2022-10-19T02:18:02.646Z,97.77
2022-10-19T02:19:02.575Z,97.77
2022-10-19T02:20:02.342Z,98.27
2022-10-19T02:21:02.775Z,98.48
2022-10-19T02:22:02.969Z,98.27
2022-10-19T02:23:03.377Z,98.07
2022-10-19T02:24:02.877Z,97.87
2022-10-19T02:25:02.769Z,98.07
2022-10-19T02:26:03.526Z,98.27
2022-10-19T02:27:02.934Z,98.27
2022-10-19T02:28:02.549Z,98.18
2022-10-19T02:29:02.372Z,97.97
2022-10-19T02:30:02.889Z,97.66
2022-10-19T02:31:02.257Z,97.77
2022-10-19T02:32:03.499Z,97.97
2022-10-19T02:33:03.085Z,97.52
2022-10-19T02:34:02.916Z,97.56
2022-10-19T02:35:03.456Z,97.46
2022-10-19T02:36:03.202Z,97.46
2022-10-19T02:37:02.387Z,97.77
2022-10-19T02:38:02.760Z,97.77
2022-10-19T02:39:02.161Z,97.97
2022-10-19T02:40:02.769Z,97.87
2022-10-19T02:41:02.296Z,98.18
2022-10-19T02:42:02.812Z,97.87
2022-10-19T02:43:02.697Z,97.66
2022-10-19T02:44:02.663Z,97.31
2022-10-19T02:45:02.490Z,97.21
2022-10-19T02:46:02.474Z,97.05
2022-10-19T02:47:03.545Z,97.56
2022-10-19T02:48:03.531Z,97.66
2022-10-19T02:49:03.051Z,97.87
2022-10-19T02:50:03.140Z,97.87
2022-10-19T02:51:03.370Z,97.87
2022-10-19T02:52:03.043Z,98.48
2022-10-19T02:53:03.616Z,98.38
2022-10-19T02:54:05.195Z,98.27
2022-10-19T02:55:03.519Z,97.97
2022-10-19T02:56:03.121Z,97.97
2022-10-19T02:57:02.684Z,97.36
2022-10-19T02:58:03.213Z,97.66
2022-10-19T02:59:03.034Z,97.56
2022-10-19T03:00:02.832Z,97.50
2022-10-19T03:01:03.047Z,97.50
2022-10-19T03:02:01.921Z,97.61
2022-10-19T03:03:02.504Z,97.91
2022-10-19T03:04:02.031Z,97.50
2022-10-19T03:05:02.533Z,97.30
2022-10-19T03:06:02.075Z,97.09
2022-10-19T03:07:02.560Z,96.79
2022-10-19T03:08:03.121Z,96.89
2022-10-19T03:09:02.956Z,97.20
2022-10-19T03:10:02.858Z,96.95
2022-10-19T03:11:02.576Z,96.84
2022-10-19T03:12:02.007Z,96.54
2022-10-19T03:13:02.324Z,96.54
2022-10-19T03:14:02.579Z,96.44
2022-10-19T03:15:02.111Z,96.23
2022-10-19T03:16:02.608Z,96.03
2022-10-19T03:17:02.169Z,96.03
2022-10-19T03:18:02.014Z,96.03
2022-10-19T03:19:02.648Z,96.84
2022-10-19T03:20:02.619Z,96.95
2022-10-19T03:21:02.264Z,96.44
2022-10-19T03:22:02.853Z,96.23
2022-10-19T03:23:02.792Z,96.84
2022-10-19T03:24:03.359Z,96.84
2022-10-19T03:25:02.951Z,96.64
2022-10-19T03:26:02.726Z,96.44
2022-10-19T03:27:02.607Z,96.34
2022-10-19T03:28:02.468Z,96.23
2022-10-19T03:29:02.636Z,96.14
2022-10-19T03:30:02.527Z,97.09
2022-10-19T03:31:03.008Z,97.30
2022-10-19T03:32:02.830Z,97.25
2022-10-19T03:33:02.742Z,97.25
2022-10-19T03:34:02.584Z,97.25
2022-10-19T03:35:02.926Z,97.36
2022-10-19T03:36:02.801Z,97.25
2022-10-19T03:37:02.314Z,97.46
2022-10-19T03:38:02.286Z,97.25
2022-10-19T03:39:02.147Z,97.25
2022-10-19T03:40:02.690Z,97.25
2022-10-19T03:41:02.294Z,97.05
2022-10-19T03:42:02.146Z,96.95
2022-10-19T03:43:02.674Z,96.84
2022-10-19T03:44:02.626Z,96.95
2022-10-19T03:45:02.404Z,97.00
2022-10-19T03:46:02.247Z,97.30
2022-10-19T03:47:02.813Z,97.81
2022-10-19T03:48:02.587Z,98.02
2022-10-19T03:49:03.156Z,98.02
2022-10-19T03:50:03.136Z,98.02
2022-10-19T03:51:02.806Z,97.91
2022-10-19T03:52:02.319Z,97.40
2022-10-19T03:54:02.746Z,97.09
2022-10-19T03:55:02.574Z,97.50
2022-10-19T03:56:02.457Z,97.50
2022-10-19T03:57:02.790Z,97.09
2022-10-19T03:58:02.821Z,97.00
2022-10-19T03:59:02.936Z,97.86
2022-10-19T04:00:02.897Z,98.16
2022-10-19T04:01:03.025Z,97.96
2022-10-19T04:02:02.857Z,97.86
2022-10-19T04:03:02.655Z,97.75
2022-10-19T04:04:02.911Z,97.86
2022-10-19T04:05:02.590Z,97.86
2022-10-19T04:06:02.506Z,98.06
2022-10-19T04:07:02.195Z,98.06
2022-10-19T04:08:02.078Z,98.16
2022-10-19T04:09:02.034Z,98.16
2022-10-19T04:10:01.956Z,97.96
2022-10-19T04:11:01.742Z,97.81
2022-10-19T04:12:02.307Z,97.71
2022-10-19T04:13:02.186Z,97.81
2022-10-19T04:14:02.120Z,97.45
2022-10-19T04:15:02.267Z,97.45
2022-10-19T04:16:02.260Z,97.96
2022-10-19T04:17:02.887Z,97.86
2022-10-19T04:18:02.728Z,97.70
2022-10-19T04:19:02.559Z,97.90
2022-10-19T04:20:02.430Z,98.05
2022-10-19T04:21:02.471Z,98.25
2022-10-19T04:22:01.966Z,99.07
2022-10-19T04:23:01.773Z,98.86
2022-10-19T04:24:01.766Z,98.56
2022-10-19T04:25:01.624Z,97.54
2022-10-19T04:26:02.161Z,97.95
2022-10-19T04:27:02.831Z,97.95
2022-10-19T04:28:02.662Z,97.74
2022-10-19T04:29:02.567Z,98.05
2022-10-19T04:30:02.472Z,97.64
2022-10-19T04:31:02.416Z,97.95
2022-10-19T04:32:02.932Z,97.64
2022-10-19T04:33:02.761Z,97.58
2022-10-19T04:34:02.622Z,97.69
2022-10-19T04:35:02.528Z,97.69
2022-10-19T04:36:02.957Z,98.20
2022-10-19T04:37:02.679Z,98.40
2022-10-19T04:38:02.282Z,98.20
2022-10-19T04:39:02.591Z,97.79
2022-10-19T04:40:02.215Z,97.79
2022-10-19T04:41:02.049Z,97.49
2022-10-19T04:42:02.097Z,98.30
2022-10-19T04:43:02.664Z,98.20
2022-10-19T04:44:02.584Z,98.20
2022-10-19T04:45:02.483Z,97.89
2022-10-19T04:46:02.314Z,97.69
2022-10-19T04:47:02.941Z,97.89
2022-10-19T04:48:02.730Z,97.79
2022-10-19T04:49:02.741Z,97.89
2022-10-19T04:50:02.578Z,97.69
2022-10-19T04:51:02.381Z,97.08
2022-10-19T04:52:02.996Z,97.28
2022-10-19T04:53:02.810Z,97.69
2022-10-19T04:54:02.632Z,97.69
2022-10-19T04:55:02.444Z,97.74
2022-10-19T04:56:02.859Z,98.04
2022-10-19T04:57:02.494Z,97.94
2022-10-19T04:58:02.182Z,98.14
2022-10-19T04:59:02.043Z,98.55
2022-10-19T05:00:01.966Z,97.94
2022-10-19T05:01:02.025Z,98.04
2022-10-19T05:02:02.887Z,97.89
2022-10-19T05:03:02.610Z,97.58
2022-10-19T05:04:02.575Z,97.58
2022-10-19T05:05:02.467Z,97.49
2022-10-19T05:06:02.549Z,97.79
2022-10-19T05:07:03.088Z,96.97
2022-10-19T05:08:02.682Z,97.08
2022-10-19T05:09:02.497Z,97.38
2022-10-19T05:10:02.997Z,97.38
2022-10-19T05:11:02.770Z,96.97
2022-10-19T05:12:02.755Z,96.87
2022-10-19T05:13:03.229Z,97.17
2022-10-19T05:14:02.848Z,96.67
2022-10-19T05:15:02.786Z,96.46
2022-10-19T05:16:03.204Z,96.31
2022-10-19T05:17:03.744Z,96.15
2022-10-19T05:18:03.503Z,96.87
2022-10-19T05:19:03.410Z,97.33
2022-10-19T05:20:03.227Z,98.04
2022-10-19T05:21:03.820Z,97.58
2022-10-19T05:22:03.147Z,97.49
2022-10-19T05:23:06.304Z,97.08
2022-10-19T05:24:02.619Z,97.28
2022-10-19T05:25:03.161Z,97.38
2022-10-19T05:26:02.695Z,97.69
2022-10-19T05:27:03.004Z,97.89
2022-10-19T05:28:03.522Z,97.58
2022-10-19T05:29:03.243Z,97.58
2022-10-19T05:30:03.188Z,97.83
2022-10-19T05:31:03.086Z,97.83
2022-10-19T05:32:03.032Z,98.04
2022-10-19T05:33:03.518Z,97.42
2022-10-19T05:34:03.395Z,97.74
2022-10-19T05:35:03.499Z,97.53
2022-10-19T05:36:03.501Z,97.74
2022-10-19T05:37:02.939Z,97.78
2022-10-19T05:38:03.076Z,98.19
2022-10-19T05:39:02.742Z,98.70
2022-10-19T05:40:02.649Z,98.90
2022-10-19T05:41:02.485Z,99.11
2022-10-19T05:42:03.025Z,98.90
2022-10-19T05:43:03.597Z,98.85
2022-10-19T05:44:03.220Z,99.15
2022-10-19T05:45:03.202Z,99.36
2022-10-19T05:46:03.175Z,99.36
2022-10-19T05:47:03.521Z,99.46
2022-10-19T05:48:03.550Z,99.82
2022-10-19T05:49:03.340Z,99.82
2022-10-19T05:50:03.194Z,99.99
2022-10-19T05:51:03.072Z,99.99
2022-10-19T05:52:02.655Z,99.99
2022-10-19T05:53:02.838Z,99.99
2022-10-19T05:54:02.437Z,99.99
2022-10-19T05:55:02.280Z,99.91
2022-10-19T05:56:02.755Z,99.99
2022-10-19T05:57:02.667Z,99.87
2022-10-19T05:58:02.637Z,99.77
2022-10-19T05:59:03.220Z,99.66
2022-10-19T06:00:02.935Z,99.21
2022-10-19T06:01:02.903Z,98.39
2022-10-19T06:02:01.851Z,98.44
2022-10-19T06:03:01.675Z,98.85
2022-10-19T06:04:02.117Z,99.30
2022-10-19T06:05:01.962Z,99.26
2022-10-19T06:06:01.761Z,99.41
2022-10-19T06:07:02.429Z,99.41
2022-10-19T06:08:02.440Z,99.36
2022-10-19T06:09:02.443Z,98.90
2022-10-19T06:10:02.436Z,99.30
2022-10-19T06:11:02.374Z,99.51
2022-10-19T06:12:02.087Z,99.20
2022-10-19T06:13:02.338Z,99.15
2022-10-19T06:14:02.286Z,98.90
2022-10-19T06:15:02.149Z,98.99
2022-10-19T06:16:02.096Z,98.95
2022-10-19T06:17:02.084Z,98.74
2022-10-19T06:18:01.950Z,98.74
2022-10-19T06:19:01.902Z,98.85
2022-10-19T06:20:02.100Z,98.24
2022-10-19T06:21:02.017Z,98.13
2022-10-19T06:22:02.617Z,98.33
2022-10-19T06:23:02.628Z,97.88
2022-10-19T06:24:02.683Z,97.88
2022-10-19T06:25:02.724Z,97.57
2022-10-19T06:26:02.633Z,97.06
2022-10-19T06:27:01.965Z,97.11
2022-10-19T06:28:01.970Z,97.62
2022-10-19T06:29:01.894Z,98.44
2022-10-19T06:30:01.902Z,98.24
2022-10-19T06:31:02.087Z,98.74
2022-10-19T06:32:02.468Z,98.33
2022-10-19T06:34:02.614Z,98.13
2022-10-19T06:35:02.518Z,98.13
2022-10-19T06:36:02.446Z,98.33
2022-10-19T06:37:02.105Z,98.13
2022-10-19T06:38:02.046Z,98.13
2022-10-19T06:39:02.315Z,98.33
2022-10-19T06:40:06.729Z,97.92
2022-10-19T06:41:02.227Z,98.03
2022-10-19T06:42:02.140Z,98.24
2022-10-19T06:43:02.096Z,98.24
2022-10-19T06:44:02.061Z,97.78
2022-10-19T06:45:01.980Z,97.67
2022-10-19T06:46:01.885Z,97.37
2022-10-19T06:47:02.302Z,96.66
2022-10-19T06:48:05.056Z,97.06
2022-10-19T06:49:02.262Z,96.66
2022-10-19T06:50:02.074Z,96.96
2022-10-19T06:51:02.594Z,97.00
2022-10-19T06:52:02.359Z,96.91
2022-10-19T06:53:02.469Z,97.62
2022-10-19T06:54:02.258Z,97.82
2022-10-19T06:55:02.008Z,97.11
2022-10-19T06:56:02.653Z,97.21
2022-10-19T06:57:02.450Z,97.52
2022-10-19T06:58:02.554Z,97.41
2022-10-19T06:59:02.613Z,97.06
2022-10-19T07:00:02.514Z,97.06
2022-10-19T07:01:02.588Z,97.16
2022-10-19T07:02:03.146Z,97.16
2022-10-19T07:03:03.774Z,97.16
2022-10-19T07:04:03.528Z,97.37
2022-10-19T07:05:06.101Z,97.16
2022-10-19T07:06:03.539Z,97.27
2022-10-19T07:07:02.660Z,97.47
2022-10-19T07:08:03.170Z,97.37
2022-10-19T07:09:02.964Z,97.33
2022-10-19T07:10:03.031Z,97.67
2022-10-19T07:11:03.072Z,97.33
2022-10-19T07:12:02.845Z,97.47
2022-10-19T07:13:02.697Z,97.53
2022-10-19T07:14:03.230Z,97.53
2022-10-19T07:15:03.191Z,97.63
2022-10-19T07:16:02.902Z,97.33
2022-10-19T07:17:02.317Z,97.53
2022-10-19T07:18:02.325Z,97.42
2022-10-19T07:19:02.402Z,97.53
2022-10-19T07:20:02.687Z,97.42
2022-10-19T07:21:02.729Z,97.12
2022-10-19T07:22:02.752Z,96.86
2022-10-19T07:23:02.687Z,96.75
2022-10-19T07:24:02.730Z,97.06
2022-10-19T07:25:02.876Z,96.81
2022-10-19T07:26:02.863Z,96.81
2022-10-19T07:27:03.128Z,96.92
2022-10-19T07:28:02.946Z,96.92
2022-10-19T07:29:02.928Z,96.51
2022-10-19T07:30:02.803Z,97.02
2022-10-19T07:31:02.741Z,97.33
2022-10-19T07:32:03.536Z,97.53
2022-10-19T07:33:03.529Z,97.22
2022-10-19T07:34:03.290Z,97.33
2022-10-19T07:35:03.353Z,97.22
2022-10-19T07:36:03.499Z,97.37
2022-10-19T07:37:03.510Z,97.16
2022-10-19T07:38:03.187Z,97.98
2022-10-19T07:39:03.751Z,97.47
2022-10-19T07:40:03.166Z,97.57
2022-10-19T07:41:03.175Z,97.88
2022-10-19T07:42:02.873Z,98.44
2022-10-19T07:43:02.873Z,98.70
2022-10-19T07:44:02.821Z,98.49
2022-10-19T07:45:02.751Z,98.19
2022-10-19T07:46:02.772Z,98.19
2022-10-19T07:47:03.565Z,98.08
2022-10-19T07:48:03.561Z,97.57
2022-10-19T07:49:03.496Z,97.88
2022-10-19T07:50:03.511Z,98.39
2022-10-19T07:51:03.578Z,98.49
2022-10-19T07:52:03.210Z,98.49
2022-10-19T07:53:02.823Z,98.70
2022-10-19T07:54:02.792Z,98.29
2022-10-19T07:55:03.206Z,98.29
2022-10-19T07:56:02.732Z,98.49
2022-10-19T07:57:03.536Z,98.49
2022-10-19T07:58:03.528Z,99.11
2022-10-19T07:59:03.168Z,99.11
2022-10-19T08:00:03.005Z,99.21
2022-10-19T08:01:03.074Z,98.60
2022-10-19T08:02:02.540Z,98.39
2022-10-19T08:03:31.565Z,98.08
2022-10-19T08:05:06.193Z,98.08
2022-10-19T08:06:02.212Z,98.60
2022-10-19T08:07:02.911Z,98.39
2022-10-19T08:08:02.832Z,98.49
2022-10-19T08:09:02.880Z,98.49
2022-10-19T08:10:02.718Z,98.70
2022-10-19T08:11:02.991Z,98.70
2022-10-19T08:12:02.455Z,98.35
2022-10-19T08:13:02.214Z,98.45
2022-10-19T08:14:02.366Z,97.83
2022-10-19T08:15:02.379Z,97.42
2022-10-19T08:16:02.142Z,97.22
2022-10-19T08:17:02.802Z,97.33
2022-10-19T08:18:02.777Z,97.63
2022-10-19T08:19:02.571Z,97.74
2022-10-19T08:20:02.302Z,97.22
2022-10-19T08:21:02.269Z,97.12
2022-10-19T08:22:02.075Z,97.74
2022-10-19T08:23:02.046Z,97.74
2022-10-19T08:24:01.967Z,97.28
2022-10-19T08:25:02.464Z,97.28
2022-10-19T08:26:02.100Z,97.42
2022-10-19T08:27:02.611Z,97.63
2022-10-19T08:28:02.391Z,97.83
2022-10-19T08:29:02.377Z,98.14
2022-10-19T08:30:02.678Z,97.63
2022-10-19T08:31:02.681Z,97.02
2022-10-19T08:32:02.982Z,97.42
2022-10-19T08:33:02.920Z,97.58
2022-10-19T08:34:02.852Z,97.79
2022-10-19T08:35:06.003Z,97.08
2022-10-19T08:36:02.733Z,96.36
2022-10-19T08:37:10.326Z,96.36
2022-10-19T08:38:03.097Z,95.95
2022-10-19T08:39:02.917Z,96.51
2022-10-19T08:40:02.767Z,96.97
2022-10-19T08:41:02.640Z,97.08
2022-10-19T08:42:02.760Z,96.87
2022-10-19T08:43:02.831Z,96.97
2022-10-19T08:44:06.234Z,97.28
2022-10-19T08:45:03.535Z,97.28
2022-10-19T08:46:03.294Z,97.02
2022-10-19T08:47:02.752Z,97.33
2022-10-19T08:48:02.802Z,97.74
2022-10-19T08:49:02.771Z,97.69
2022-10-19T08:50:02.633Z,97.69
2022-10-19T08:51:02.522Z,97.17
2022-10-19T08:52:02.717Z,96.81
2022-10-19T08:53:03.088Z,97.12
2022-10-19T08:54:02.838Z,97.74
2022-10-19T08:55:03.530Z,98.24
2022-10-19T08:56:04.477Z,98.14
2022-10-19T08:57:02.809Z,98.65
2022-10-19T08:58:02.367Z,98.35
2022-10-19T08:59:02.316Z,98.35
2022-10-19T09:00:02.298Z,98.35
2022-10-19T09:01:02.295Z,98.14
2022-10-19T09:02:02.520Z,97.94
2022-10-19T09:03:02.443Z,97.94
2022-10-19T09:04:02.764Z,97.94
2022-10-19T09:05:02.801Z,98.04
2022-10-19T09:06:02.469Z,98.24
2022-10-19T09:07:03.519Z,98.30
2022-10-19T09:08:03.441Z,98.04
2022-10-19T09:09:03.550Z,98.55
2022-10-19T09:10:03.532Z,98.75
2022-10-19T09:11:03.258Z,98.65
2022-10-19T09:12:02.262Z,98.75
2022-10-19T09:13:02.501Z,99.16
2022-10-19T09:14:06.315Z,99.22
2022-10-19T09:15:02.411Z,99.43
2022-10-19T09:16:02.342Z,99.52
2022-10-19T09:17:03.454Z,99.99
2022-10-19T09:18:02.819Z,99.99
2022-10-19T09:19:02.899Z,99.99
2022-10-19T09:20:02.945Z,99.99
2022-10-19T09:21:02.860Z,99.99
2022-10-19T09:22:03.021Z,99.99
2022-10-19T09:23:02.427Z,99.99
2022-10-19T09:24:02.947Z,99.99
2022-10-19T09:25:02.923Z,99.99
2022-10-19T09:26:02.869Z,99.64
2022-10-19T09:27:03.028Z,99.33
2022-10-19T09:28:03.047Z,99.54
2022-10-19T09:29:02.968Z,99.59
2022-10-19T09:30:03.052Z,99.49
2022-10-19T09:31:02.979Z,99.08
2022-10-19T09:32:02.702Z,99.65
2022-10-19T09:33:02.895Z,99.44
2022-10-19T09:34:02.534Z,99.50
2022-10-19T09:35:02.537Z,98.99
2022-10-19T09:36:02.921Z,98.38
2022-10-19T09:37:02.972Z,98.94
2022-10-19T09:38:03.032Z,98.94
2022-10-19T09:39:03.018Z,98.43
2022-10-19T09:40:02.983Z,98.08
2022-10-19T09:41:02.963Z,97.16
2022-10-19T09:42:02.955Z,97.06
2022-10-19T09:43:03.035Z,96.96
2022-10-19T09:44:03.090Z,97.27
2022-10-19T09:45:03.076Z,96.25
2022-10-19T09:46:05.050Z,96.25
2022-10-19T09:47:03.025Z,96.41
2022-10-19T09:48:08.686Z,96.61
2022-10-19T09:49:03.358Z,97.02
2022-10-19T09:50:03.145Z,96.67
2022-10-19T09:51:02.999Z,96.77
2022-10-19T09:52:02.834Z,96.15
2022-10-19T09:53:02.975Z,96.26
2022-10-19T09:54:02.388Z,97.13
2022-10-19T09:55:02.738Z,96.62
2022-10-19T09:56:02.741Z,96.52
2022-10-19T09:57:03.379Z,95.25
2022-10-19T09:58:03.509Z,93.52
2022-10-19T09:59:03.494Z,93.22
2022-10-19T10:00:03.472Z,93.52
2022-10-19T10:01:03.674Z,93.93
2022-10-19T10:03:03.584Z,93.99
2022-10-19T10:04:03.704Z,93.68
2022-10-19T10:05:03.400Z,93.13
2022-10-19T10:06:03.545Z,93.24
2022-10-19T10:07:02.750Z,92.12
2022-10-19T10:08:02.553Z,90.19
2022-10-19T10:09:02.708Z,90.70
2022-10-19T10:10:02.926Z,91.61
2022-10-19T10:11:02.522Z,91.41
2022-10-19T10:12:02.957Z,90.80
2022-10-19T10:13:02.801Z,90.86
2022-10-19T10:14:04.978Z,90.45
2022-10-19T10:15:03.269Z,90.25
2022-10-19T10:16:02.684Z,90.35
2022-10-19T10:17:03.522Z,91.56
2022-10-19T10:18:03.313Z,90.71
2022-10-19T10:19:03.300Z,90.11
2022-10-19T10:20:03.531Z,90.11
2022-10-19T10:21:05.908Z,88.38
2022-10-19T10:22:03.147Z,87.87
2022-10-19T10:23:03.165Z,88.38
2022-10-19T10:24:02.923Z,89.50
2022-10-19T10:25:02.907Z,90.00
2022-10-19T10:26:03.094Z,89.96
2022-10-19T10:27:03.491Z,88.95
2022-10-19T10:28:03.548Z,88.75
2022-10-19T10:29:03.325Z,88.64
2022-10-19T10:30:03.510Z,90.22
2022-10-19T10:31:03.513Z,89.41
2022-10-19T10:32:02.779Z,87.89
2022-10-19T10:33:13.426Z,88.49
2022-10-19T10:34:11.078Z,88.20
2022-10-19T10:35:02.323Z,86.88
2022-10-19T10:36:02.648Z,86.68
2022-10-19T10:37:02.934Z,88.29
2022-10-19T10:38:02.878Z,88.15
2022-10-19T10:40:03.957Z,86.83
2022-10-19T10:41:03.036Z,88.76
2022-10-19T10:42:02.965Z,88.42
2022-10-19T10:43:02.821Z,87.60
2022-10-19T10:44:04.779Z,88.31
2022-10-19T10:45:03.115Z,86.35
2022-10-19T10:46:02.801Z,85.27
2022-10-19T10:47:03.190Z,85.48
2022-10-19T10:48:02.757Z,86.45
2022-10-19T10:49:03.183Z,87.66
2022-10-19T10:50:02.923Z,85.94
2022-10-19T10:51:02.978Z,86.35
2022-10-19T10:52:03.423Z,86.05
2022-10-19T10:53:03.503Z,85.60
2022-10-19T10:54:03.040Z,86.61
2022-10-19T10:55:03.013Z,86.41
2022-10-19T10:56:03.502Z,85.25
2022-10-19T10:57:04.417Z,84.95
2022-10-19T10:58:03.759Z,84.55
2022-10-19T10:59:03.486Z,83.94
2022-10-19T11:00:03.141Z,83.44
2022-10-19T11:01:06.705Z,83.23
2022-10-19T11:02:03.009Z,83.54
2022-10-19T11:03:02.706Z,83.13
2022-10-19T11:04:02.838Z,83.54
2022-10-19T11:05:02.583Z,83.23
2022-10-19T11:06:03.022Z,83.64
2022-10-19T11:07:02.584Z,84.45
2022-10-19T11:08:02.010Z,85.66
2022-10-19T11:09:02.197Z,84.81
2022-10-19T11:10:02.199Z,83.80
2022-10-19T11:11:02.443Z,83.40
2022-10-19T11:12:02.626Z,83.29
2022-10-19T11:13:02.642Z,83.46
2022-10-19T11:14:02.780Z,82.75
2022-10-19T11:15:02.865Z,84.37
2022-10-19T11:16:02.241Z,85.88
2022-10-19T11:17:03.191Z,85.44
2022-10-19T11:18:02.721Z,81.90
2022-10-19T11:19:02.774Z,81.40
2022-10-19T11:20:02.844Z,81.20
2022-10-19T11:21:02.623Z,83.32
2022-10-19T11:22:02.818Z,83.82
2022-10-19T11:23:02.709Z,83.48
2022-10-19T11:24:02.776Z,80.96
2022-10-19T11:25:02.637Z,79.85
2022-10-19T11:26:02.249Z,81.46
2022-10-19T11:27:03.505Z,81.67
2022-10-19T11:28:03.514Z,80.72
2022-10-19T11:29:02.936Z,81.52
2022-10-19T11:30:03.211Z,81.32
2022-10-19T11:31:02.885Z,83.30
2022-10-19T11:32:02.436Z,80.88
2022-10-19T11:33:02.550Z,81.99
2022-10-19T11:34:02.758Z,81.45
2022-10-19T11:35:02.451Z,79.93
2022-10-19T11:36:02.465Z,79.53
2022-10-19T11:37:02.635Z,78.83
2022-10-19T11:38:21.148Z,78.22
2022-10-19T11:39:03.146Z,79.53
2022-10-19T11:40:03.208Z,78.52
2022-10-19T11:41:19.146Z,80.10
2022-10-19T11:42:02.867Z,78.69
2022-10-19T11:43:03.520Z,78.08
2022-10-19T11:44:02.929Z,78.19
2022-10-19T11:45:03.046Z,78.08
2022-10-19T11:46:03.502Z,77.78
2022-10-19T11:47:03.520Z,77.58
2022-10-19T11:48:02.682Z,77.68
2022-10-19T11:49:02.741Z,77.28
2022-10-19T11:50:02.625Z,77.48
2022-10-19T11:51:20.540Z,77.88
2022-10-19T11:52:02.848Z,79.29
2022-10-19T11:53:02.080Z,77.55
2022-10-19T11:54:02.102Z,79.56
2022-10-19T11:55:02.527Z,81.13
2022-10-19T11:56:02.297Z,78.31
2022-10-19T11:57:04.729Z,76.50
2022-10-19T11:58:03.155Z,78.81
2022-10-19T11:59:02.709Z,77.17
2022-10-19T12:00:14.064Z,77.27
2022-10-19T12:01:03.075Z,76.16
2022-10-19T12:02:03.334Z,77.37
2022-10-19T12:03:03.818Z,76.53
2022-10-19T12:04:02.074Z,77.63
2022-10-19T12:05:02.236Z,76.32
2022-10-19T12:06:02.007Z,76.43
2022-10-19T12:07:02.379Z,77.43
2022-10-19T12:08:02.092Z,79.41
2022-10-19T12:09:02.267Z,79.41
2022-10-19T12:10:02.531Z,76.86
2022-10-19T12:11:02.304Z,76.35
2022-10-19T12:12:02.457Z,78.33
2022-10-19T12:13:02.430Z,77.02
2022-10-19T12:14:02.637Z,75.01
2022-10-19T12:15:02.390Z,75.08
2022-10-19T12:16:02.559Z,75.48
2022-10-19T12:17:02.428Z,75.78
2022-10-19T12:18:02.404Z,77.55
2022-10-19T12:19:02.514Z,74.74
2022-10-19T12:20:02.440Z,73.13
2022-10-19T12:21:02.668Z,74.04
2022-10-19T12:22:02.463Z,75.64
2022-10-19T12:23:02.112Z,73.13
2022-10-19T12:24:02.343Z,73.84
2022-10-19T12:25:01.940Z,72.20
2022-10-19T12:26:01.989Z,72.63
2022-10-19T12:27:01.883Z,72.03
2022-10-19T12:28:02.453Z,72.24
2022-10-19T12:29:02.258Z,72.24
2022-10-19T12:30:02.236Z,70.96
2022-10-19T12:31:02.380Z,72.67
2022-10-19T12:32:02.641Z,73.87
2022-10-19T12:33:02.788Z,75.64
2022-10-19T12:34:02.400Z,74.64
2022-10-19T12:35:02.399Z,75.41
2022-10-19T12:36:02.561Z,73.50
2022-10-19T12:37:02.333Z,75.17
2022-10-19T12:38:02.067Z,72.36
2022-10-19T12:39:01.679Z,73.57
2022-10-19T12:40:01.723Z,69.86
2022-10-19T12:41:02.068Z,73.67
2022-10-19T12:42:02.158Z,73.43
2022-10-19T12:43:02.333Z,74.43
2022-10-19T12:44:02.381Z,73.03
2022-10-19T12:45:02.091Z,72.39
2022-10-19T12:46:02.326Z,71.30
2022-10-19T12:47:02.136Z,72.09
2022-10-19T12:48:02.955Z,70.50
2022-10-19T12:49:02.845Z,70.79
2022-10-19T12:50:03.042Z,70.59
2022-10-19T12:51:02.473Z,69.59
2022-10-19T12:52:02.895Z,71.69
2022-10-19T12:53:02.652Z,69.76
2022-10-19T12:54:02.997Z,70.56
2022-10-19T12:55:02.996Z,72.36
2022-10-19T12:56:02.455Z,72.63
2022-10-19T12:57:02.841Z,71.42